sensor_id;sensor_type;location;lat;lon;timestamp;P1;durP1;ratioP1;P2;durP2;ratioP2
20619;SDS011;10469;42.720;23.252;2023-02-28T00:00:15;29.50;;;18.13;;
20619;SDS011;10469;42.720;23.252;2023-02-28T00:02:42;27.67;;;16.92;;
20619;SDS011;10469;42.720;23.252;2023-02-28T00:05:09;31.35;;;16.55;;
20619;SDS011;10469;42.720;23.252;2023-02-28T00:07:35;27.83;;;15.73;;
20619;SDS011;10469;42.720;23.252;2023-02-28T00:10:00;25.85;;;17.58;;
20619;SDS011;10469;42.720;23.252;2023-02-28T00:12:26;27.13;;;15.88;;
20619;SDS011;10469;42.720;23.252;2023-02-28T00:14:52;29.40;;;16.90;;
20619;SDS011;10469;42.720;23.252;2023-02-28T00:17:17;28.80;;;15.95;;
20619;SDS011;10469;42.720;23.252;2023-02-28T00:19:46;27.95;;;15.80;;
20619;SDS011;10469;42.720;23.252;2023-02-28T00:22:13;29.88;;;15.88;;
20619;SDS011;10469;42.720;23.252;2023-02-28T00:24:39;30.25;;;16.70;;
20619;SDS011;10469;42.720;23.252;2023-02-28T00:27:04;30.02;;;17.13;;
20619;SDS011;10469;42.720;23.252;2023-02-28T00:29:30;29.48;;;18.02;;
20619;SDS011;10469;42.720;23.252;2023-02-28T00:31:55;31.00;;;15.63;;
20619;SDS011;10469;42.720;23.252;2023-02-28T00:34:21;28.08;;;16.45;;
20619;SDS011;10469;42.720;23.252;2023-02-28T00:36:46;27.90;;;15.13;;
20619;SDS011;10469;42.720;23.252;2023-02-28T00:39:14;28.92;;;15.98;;
20619;SDS011;10469;42.720;23.252;2023-02-28T00:41:40;30.98;;;15.07;;
20619;SDS011;10469;42.720;23.252;2023-02-28T00:44:05;23.70;;;13.98;;
20619;SDS011;10469;42.720;23.252;2023-02-28T00:46:30;32.47;;;14.27;;
20619;SDS011;10469;42.720;23.252;2023-02-28T00:48:56;28.45;;;15.40;;
20619;SDS011;10469;42.720;23.252;2023-02-28T00:51:21;29.60;;;15.80;;
20619;SDS011;10469;42.720;23.252;2023-02-28T00:53:47;27.92;;;15.40;;
20619;SDS011;10469;42.720;23.252;2023-02-28T00:56:12;28.95;;;16.02;;
20619;SDS011;10469;42.720;23.252;2023-02-28T00:58:38;28.15;;;15.25;;
20619;SDS011;10469;42.720;23.252;2023-02-28T01:01:04;23.80;;;14.70;;
20619;SDS011;10469;42.720;23.252;2023-02-28T01:03:29;30.33;;;16.58;;
20619;SDS011;10469;42.720;23.252;2023-02-28T01:05:55;31.10;;;15.10;;
20619;SDS011;10469;42.720;23.252;2023-02-28T01:08:20;30.73;;;17.75;;
20619;SDS011;10469;42.720;23.252;2023-02-28T01:10:46;29.80;;;17.02;;
20619;SDS011;10469;42.720;23.252;2023-02-28T01:13:13;32.35;;;18.02;;
20619;SDS011;10469;42.720;23.252;2023-02-28T01:15:40;30.65;;;18.15;;
20619;SDS011;10469;42.720;23.252;2023-02-28T01:18:08;32.28;;;17.23;;
20619;SDS011;10469;42.720;23.252;2023-02-28T01:20:35;30.13;;;17.55;;
20619;SDS011;10469;42.720;23.252;2023-02-28T01:23:03;29.50;;;17.88;;
20619;SDS011;10469;42.720;23.252;2023-02-28T01:25:29;32.78;;;19.20;;
20619;SDS011;10469;42.720;23.252;2023-02-28T01:27:54;32.63;;;18.52;;
20619;SDS011;10469;42.720;23.252;2023-02-28T01:30:20;33.95;;;17.73;;
20619;SDS011;10469;42.720;23.252;2023-02-28T01:32:46;37.05;;;18.23;;
20619;SDS011;10469;42.720;23.252;2023-02-28T01:35:11;34.05;;;18.42;;
20619;SDS011;10469;42.720;23.252;2023-02-28T01:37:37;32.55;;;17.50;;
20619;SDS011;10469;42.720;23.252;2023-02-28T01:40:02;35.42;;;17.60;;
20619;SDS011;10469;42.720;23.252;2023-02-28T01:42:28;39.65;;;18.17;;
20619;SDS011;10469;42.720;23.252;2023-02-28T01:45:02;32.85;;;17.70;;
20619;SDS011;10469;42.720;23.252;2023-02-28T01:47:43;30.50;;;17.30;;
20619;SDS011;10469;42.720;23.252;2023-02-28T01:50:13;35.72;;;18.70;;
20619;SDS011;10469;42.720;23.252;2023-02-28T01:55:09;33.92;;;18.23;;
20619;SDS011;10469;42.720;23.252;2023-02-28T01:57:38;33.13;;;18.15;;
20619;SDS011;10469;42.720;23.252;2023-02-28T02:02:36;33.15;;;16.83;;
20619;SDS011;10469;42.720;23.252;2023-02-28T02:05:05;33.72;;;17.50;;
20619;SDS011;10469;42.720;23.252;2023-02-28T02:07:34;32.92;;;17.23;;
20619;SDS011;10469;42.720;23.252;2023-02-28T02:10:10;33.08;;;16.45;;
20619;SDS011;10469;42.720;23.252;2023-02-28T02:15:40;33.40;;;17.35;;
20619;SDS011;10469;42.720;23.252;2023-02-28T02:21:05;36.00;;;17.17;;
20619;SDS011;10469;42.720;23.252;2023-02-28T02:40:17;43.88;;;20.45;;
20619;SDS011;10469;42.720;23.252;2023-02-28T02:45:48;46.25;;;22.75;;
20619;SDS011;10469;42.720;23.252;2023-02-28T02:48:18;53.55;;;23.33;;
20619;SDS011;10469;42.720;23.252;2023-02-28T02:50:48;47.35;;;23.42;;
20619;SDS011;10469;42.720;23.252;2023-02-28T02:53:20;46.53;;;21.00;;
20619;SDS011;10469;42.720;23.252;2023-02-28T02:55:49;45.85;;;22.30;;
20619;SDS011;10469;42.720;23.252;2023-02-28T02:58:20;50.15;;;21.15;;
20619;SDS011;10469;42.720;23.252;2023-02-28T03:00:51;44.05;;;20.48;;
20619;SDS011;10469;42.720;23.252;2023-02-28T03:03:20;41.15;;;20.63;;
20619;SDS011;10469;42.720;23.252;2023-02-28T03:05:54;51.10;;;18.60;;
20619;SDS011;10469;42.720;23.252;2023-02-28T03:08:21;44.20;;;19.05;;
20619;SDS011;10469;42.720;23.252;2023-02-28T03:10:51;43.15;;;19.65;;
20619;SDS011;10469;42.720;23.252;2023-02-28T03:21:32;50.70;;;19.75;;
20619;SDS011;10469;42.720;23.252;2023-02-28T03:24:12;49.28;;;17.50;;
20619;SDS011;10469;42.720;23.252;2023-02-28T03:26:43;40.17;;;17.60;;
20619;SDS011;10469;42.720;23.252;2023-02-28T03:29:23;41.25;;;18.08;;
20619;SDS011;10469;42.720;23.252;2023-02-28T03:31:58;50.70;;;19.65;;
20619;SDS011;10469;42.720;23.252;2023-02-28T03:34:46;47.38;;;18.63;;
20619;SDS011;10469;42.720;23.252;2023-02-28T03:37:21;54.63;;;20.33;;
20619;SDS011;10469;42.720;23.252;2023-02-28T03:39:55;53.65;;;21.30;;
20619;SDS011;10469;42.720;23.252;2023-02-28T03:42:25;50.65;;;22.35;;
20619;SDS011;10469;42.720;23.252;2023-02-28T03:44:55;47.20;;;19.65;;
20619;SDS011;10469;42.720;23.252;2023-02-28T03:47:25;52.60;;;20.73;;
20619;SDS011;10469;42.720;23.252;2023-02-28T03:49:57;47.17;;;20.20;;
20619;SDS011;10469;42.720;23.252;2023-02-28T03:52:42;47.13;;;19.52;;
20619;SDS011;10469;42.720;23.252;2023-02-28T03:55:12;44.45;;;19.58;;
20619;SDS011;10469;42.720;23.252;2023-02-28T04:00:30;47.92;;;20.70;;
20619;SDS011;10469;42.720;23.252;2023-02-28T04:02:59;50.70;;;20.42;;
20619;SDS011;10469;42.720;23.252;2023-02-28T04:05:24;49.45;;;22.17;;
20619;SDS011;10469;42.720;23.252;2023-02-28T04:07:52;64.35;;;23.80;;
20619;SDS011;10469;42.720;23.252;2023-02-28T04:10:18;57.45;;;23.20;;
20619;SDS011;10469;42.720;23.252;2023-02-28T04:12:43;51.97;;;21.40;;
20619;SDS011;10469;42.720;23.252;2023-02-28T04:15:09;58.60;;;24.20;;
20619;SDS011;10469;42.720;23.252;2023-02-28T04:17:36;51.42;;;22.85;;
20619;SDS011;10469;42.720;23.252;2023-02-28T04:20:01;55.03;;;24.20;;
20619;SDS011;10469;42.720;23.252;2023-02-28T04:22:28;50.78;;;24.15;;
20619;SDS011;10469;42.720;23.252;2023-02-28T04:24:54;53.40;;;22.67;;
20619;SDS011;10469;42.720;23.252;2023-02-28T04:27:20;50.20;;;24.38;;
20619;SDS011;10469;42.720;23.252;2023-02-28T04:29:46;49.10;;;22.63;;
20619;SDS011;10469;42.720;23.252;2023-02-28T04:32:11;44.42;;;22.48;;
20619;SDS011;10469;42.720;23.252;2023-02-28T04:34:37;54.30;;;26.02;;
20619;SDS011;10469;42.720;23.252;2023-02-28T04:37:03;50.80;;;24.63;;
20619;SDS011;10469;42.720;23.252;2023-02-28T04:39:29;54.28;;;26.83;;
20619;SDS011;10469;42.720;23.252;2023-02-28T04:41:54;51.53;;;25.33;;
20619;SDS011;10469;42.720;23.252;2023-02-28T04:44:21;49.75;;;25.67;;
20619;SDS011;10469;42.720;23.252;2023-02-28T04:46:47;50.72;;;24.95;;
20619;SDS011;10469;42.720;23.252;2023-02-28T04:49:14;49.08;;;23.42;;
20619;SDS011;10469;42.720;23.252;2023-02-28T04:51:40;45.97;;;22.70;;
20619;SDS011;10469;42.720;23.252;2023-02-28T04:54:06;43.30;;;20.90;;
20619;SDS011;10469;42.720;23.252;2023-02-28T04:56:32;40.90;;;21.90;;
20619;SDS011;10469;42.720;23.252;2023-02-28T04:58:58;40.50;;;21.08;;
20619;SDS011;10469;42.720;23.252;2023-02-28T05:01:30;46.25;;;21.90;;
20619;SDS011;10469;42.720;23.252;2023-02-28T05:03:59;37.17;;;20.10;;
20619;SDS011;10469;42.720;23.252;2023-02-28T05:06:27;41.17;;;21.17;;
20619;SDS011;10469;42.720;23.252;2023-02-28T05:08:54;42.42;;;23.08;;
20619;SDS011;10469;42.720;23.252;2023-02-28T05:11:21;44.25;;;20.92;;
20619;SDS011;10469;42.720;23.252;2023-02-28T05:13:51;43.58;;;22.85;;
20619;SDS011;10469;42.720;23.252;2023-02-28T05:16:17;38.05;;;21.92;;
20619;SDS011;10469;42.720;23.252;2023-02-28T05:18:44;41.67;;;20.88;;
20619;SDS011;10469;42.720;23.252;2023-02-28T05:21:26;43.63;;;19.85;;
20619;SDS011;10469;42.720;23.252;2023-02-28T05:23:54;43.85;;;20.30;;
20619;SDS011;10469;42.720;23.252;2023-02-28T05:26:20;52.30;;;20.85;;
20619;SDS011;10469;42.720;23.252;2023-02-28T05:28:47;48.20;;;21.63;;
20619;SDS011;10469;42.720;23.252;2023-02-28T05:31:12;44.60;;;20.48;;
20619;SDS011;10469;42.720;23.252;2023-02-28T05:33:38;44.60;;;21.10;;
20619;SDS011;10469;42.720;23.252;2023-02-28T05:36:04;42.03;;;21.40;;
20619;SDS011;10469;42.720;23.252;2023-02-28T05:38:30;50.38;;;23.17;;
20619;SDS011;10469;42.720;23.252;2023-02-28T05:40:56;52.90;;;21.63;;
20619;SDS011;10469;42.720;23.252;2023-02-28T05:43:22;47.88;;;20.70;;
20619;SDS011;10469;42.720;23.252;2023-02-28T05:45:47;49.78;;;21.98;;
20619;SDS011;10469;42.720;23.252;2023-02-28T05:48:13;52.58;;;20.30;;
20619;SDS011;10469;42.720;23.252;2023-02-28T05:50:38;38.92;;;19.75;;
20619;SDS011;10469;42.720;23.252;2023-02-28T05:53:04;43.67;;;20.13;;
20619;SDS011;10469;42.720;23.252;2023-02-28T05:55:29;47.25;;;20.30;;
20619;SDS011;10469;42.720;23.252;2023-02-28T05:57:55;44.10;;;19.42;;
20619;SDS011;10469;42.720;23.252;2023-02-28T06:00:21;49.28;;;22.17;;
20619;SDS011;10469;42.720;23.252;2023-02-28T06:02:46;51.38;;;21.83;;
20619;SDS011;10469;42.720;23.252;2023-02-28T06:05:14;44.60;;;21.85;;
20619;SDS011;10469;42.720;23.252;2023-02-28T06:07:41;46.88;;;22.50;;
20619;SDS011;10469;42.720;23.252;2023-02-28T06:10:06;50.38;;;22.98;;
20619;SDS011;10469;42.720;23.252;2023-02-28T06:12:32;52.97;;;22.25;;
20619;SDS011;10469;42.720;23.252;2023-02-28T06:14:57;53.20;;;25.25;;
20619;SDS011;10469;42.720;23.252;2023-02-28T06:17:23;50.08;;;24.38;;
20619;SDS011;10469;42.720;23.252;2023-02-28T06:19:48;52.85;;;25.42;;
20619;SDS011;10469;42.720;23.252;2023-02-28T06:22:14;56.05;;;26.65;;
20619;SDS011;10469;42.720;23.252;2023-02-28T06:24:39;53.72;;;24.60;;
20619;SDS011;10469;42.720;23.252;2023-02-28T06:27:05;56.70;;;25.73;;
20619;SDS011;10469;42.720;23.252;2023-02-28T06:29:31;60.35;;;29.40;;
20619;SDS011;10469;42.720;23.252;2023-02-28T06:31:57;56.17;;;27.83;;
20619;SDS011;10469;42.720;23.252;2023-02-28T06:34:22;65.53;;;31.60;;
20619;SDS011;10469;42.720;23.252;2023-02-28T06:36:49;66.22;;;30.77;;
20619;SDS011;10469;42.720;23.252;2023-02-28T06:39:15;67.85;;;33.45;;
20619;SDS011;10469;42.720;23.252;2023-02-28T06:41:41;75.97;;;32.92;;
20619;SDS011;10469;42.720;23.252;2023-02-28T06:44:11;69.72;;;31.95;;
20619;SDS011;10469;42.720;23.252;2023-02-28T06:46:39;66.45;;;29.23;;
20619;SDS011;10469;42.720;23.252;2023-02-28T06:49:06;63.88;;;28.20;;
20619;SDS011;10469;42.720;23.252;2023-02-28T06:51:34;60.42;;;28.85;;
20619;SDS011;10469;42.720;23.252;2023-02-28T06:53:59;64.90;;;29.17;;
20619;SDS011;10469;42.720;23.252;2023-02-28T06:56:25;52.35;;;26.35;;
20619;SDS011;10469;42.720;23.252;2023-02-28T06:58:50;58.50;;;27.83;;
20619;SDS011;10469;42.720;23.252;2023-02-28T07:01:17;62.58;;;28.35;;
20619;SDS011;10469;42.720;23.252;2023-02-28T07:03:43;58.88;;;28.08;;
20619;SDS011;10469;42.720;23.252;2023-02-28T07:06:09;58.85;;;28.90;;
20619;SDS011;10469;42.720;23.252;2023-02-28T07:08:35;60.22;;;29.27;;
20619;SDS011;10469;42.720;23.252;2023-02-28T07:11:01;58.25;;;29.20;;
20619;SDS011;10469;42.720;23.252;2023-02-28T07:13:27;67.35;;;30.92;;
20619;SDS011;10469;42.720;23.252;2023-02-28T07:15:56;65.88;;;29.45;;
20619;SDS011;10469;42.720;23.252;2023-02-28T07:18:29;63.75;;;29.17;;
20619;SDS011;10469;42.720;23.252;2023-02-28T07:20:55;61.63;;;28.45;;
20619;SDS011;10469;42.720;23.252;2023-02-28T07:23:20;63.70;;;29.75;;
20619;SDS011;10469;42.720;23.252;2023-02-28T07:25:46;54.78;;;28.52;;
20619;SDS011;10469;42.720;23.252;2023-02-28T07:28:13;70.03;;;30.90;;
20619;SDS011;10469;42.720;23.252;2023-02-28T07:30:39;60.22;;;29.83;;
20619;SDS011;10469;42.720;23.252;2023-02-28T07:33:05;75.40;;;32.30;;
20619;SDS011;10469;42.720;23.252;2023-02-28T07:35:30;65.80;;;30.83;;
20619;SDS011;10469;42.720;23.252;2023-02-28T07:37:59;70.88;;;31.27;;
20619;SDS011;10469;42.720;23.252;2023-02-28T07:40:25;67.32;;;31.40;;
20619;SDS011;10469;42.720;23.252;2023-02-28T07:42:51;66.47;;;30.85;;
20619;SDS011;10469;42.720;23.252;2023-02-28T07:45:16;61.75;;;29.02;;
20619;SDS011;10469;42.720;23.252;2023-02-28T07:47:42;67.38;;;29.77;;
20619;SDS011;10469;42.720;23.252;2023-02-28T07:50:09;59.75;;;27.30;;
20619;SDS011;10469;42.720;23.252;2023-02-28T07:52:37;64.05;;;28.95;;
20619;SDS011;10469;42.720;23.252;2023-02-28T07:55:04;69.43;;;29.27;;
20619;SDS011;10469;42.720;23.252;2023-02-28T07:57:31;63.38;;;29.95;;
20619;SDS011;10469;42.720;23.252;2023-02-28T07:59:56;67.07;;;30.85;;
20619;SDS011;10469;42.720;23.252;2023-02-28T08:02:22;66.32;;;33.35;;
20619;SDS011;10469;42.720;23.252;2023-02-28T08:04:47;66.25;;;31.20;;
20619;SDS011;10469;42.720;23.252;2023-02-28T08:07:14;66.78;;;32.15;;
20619;SDS011;10469;42.720;23.252;2023-02-28T08:09:41;77.78;;;33.95;;
20619;SDS011;10469;42.720;23.252;2023-02-28T08:12:07;73.25;;;32.97;;
20619;SDS011;10469;42.720;23.252;2023-02-28T08:14:33;72.40;;;31.95;;
20619;SDS011;10469;42.720;23.252;2023-02-28T08:16:59;73.72;;;31.52;;
20619;SDS011;10469;42.720;23.252;2023-02-28T08:19:25;67.65;;;31.90;;
20619;SDS011;10469;42.720;23.252;2023-02-28T08:21:50;66.32;;;30.67;;
20619;SDS011;10469;42.720;23.252;2023-02-28T08:24:15;63.70;;;30.13;;
20619;SDS011;10469;42.720;23.252;2023-02-28T08:26:41;71.28;;;30.27;;
20619;SDS011;10469;42.720;23.252;2023-02-28T08:29:06;62.45;;;27.67;;
20619;SDS011;10469;42.720;23.252;2023-02-28T08:31:32;60.17;;;29.23;;
20619;SDS011;10469;42.720;23.252;2023-02-28T08:33:57;63.10;;;29.77;;
20619;SDS011;10469;42.720;23.252;2023-02-28T08:36:24;59.97;;;28.92;;
20619;SDS011;10469;42.720;23.252;2023-02-28T08:38:51;54.92;;;27.83;;
20619;SDS011;10469;42.720;23.252;2023-02-28T08:41:16;62.92;;;28.63;;
20619;SDS011;10469;42.720;23.252;2023-02-28T08:43:42;64.85;;;29.05;;
20619;SDS011;10469;42.720;23.252;2023-02-28T08:46:08;57.15;;;30.15;;
20619;SDS011;10469;42.720;23.252;2023-02-28T08:48:37;60.65;;;29.95;;
20619;SDS011;10469;42.720;23.252;2023-02-28T08:51:09;64.68;;;30.13;;
20619;SDS011;10469;42.720;23.252;2023-02-28T08:53:37;57.47;;;27.58;;
20619;SDS011;10469;42.720;23.252;2023-02-28T08:56:13;56.45;;;28.77;;
20619;SDS011;10469;42.720;23.252;2023-02-28T08:58:41;58.53;;;27.98;;
20619;SDS011;10469;42.720;23.252;2023-02-28T09:01:10;56.67;;;28.85;;
20619;SDS011;10469;42.720;23.252;2023-02-28T09:03:43;62.08;;;29.77;;
20619;SDS011;10469;42.720;23.252;2023-02-28T09:06:11;60.03;;;29.52;;
20619;SDS011;10469;42.720;23.252;2023-02-28T09:08:38;62.45;;;29.77;;
20619;SDS011;10469;42.720;23.252;2023-02-28T09:11:05;69.30;;;31.27;;
20619;SDS011;10469;42.720;23.252;2023-02-28T09:13:31;58.53;;;29.52;;
20619;SDS011;10469;42.720;23.252;2023-02-28T09:15:58;58.80;;;30.88;;
20619;SDS011;10469;42.720;23.252;2023-02-28T09:18:24;59.90;;;28.88;;
20619;SDS011;10469;42.720;23.252;2023-02-28T09:20:51;58.42;;;30.15;;
20619;SDS011;10469;42.720;23.252;2023-02-28T09:23:16;59.35;;;31.42;;
20619;SDS011;10469;42.720;23.252;2023-02-28T09:25:46;78.85;;;32.13;;
20619;SDS011;10469;42.720;23.252;2023-02-28T09:28:15;64.90;;;31.60;;
20619;SDS011;10469;42.720;23.252;2023-02-28T09:30:44;72.32;;;32.55;;
20619;SDS011;10469;42.720;23.252;2023-02-28T09:33:10;64.00;;;31.77;;
20619;SDS011;10469;42.720;23.252;2023-02-28T09:35:36;68.30;;;34.25;;
20619;SDS011;10469;42.720;23.252;2023-02-28T09:38:02;66.20;;;34.17;;
20619;SDS011;10469;42.720;23.252;2023-02-28T09:40:29;64.47;;;33.58;;
20619;SDS011;10469;42.720;23.252;2023-02-28T09:42:55;70.65;;;34.25;;
20619;SDS011;10469;42.720;23.252;2023-02-28T09:45:27;67.10;;;34.63;;
20619;SDS011;10469;42.720;23.252;2023-02-28T09:50:33;67.55;;;34.08;;
20619;SDS011;10469;42.720;23.252;2023-02-28T09:53:06;61.65;;;32.40;;
20619;SDS011;10469;42.720;23.252;2023-02-28T09:55:52;64.70;;;32.45;;
20619;SDS011;10469;42.720;23.252;2023-02-28T09:58:26;61.03;;;31.50;;
20619;SDS011;10469;42.720;23.252;2023-02-28T10:01:03;60.42;;;31.83;;
20619;SDS011;10469;42.720;23.252;2023-02-28T10:04:11;61.95;;;29.35;;
20619;SDS011;10469;42.720;23.252;2023-02-28T10:06:52;55.63;;;29.05;;
20619;SDS011;10469;42.720;23.252;2023-02-28T10:09:25;60.47;;;28.25;;
20619;SDS011;10469;42.720;23.252;2023-02-28T10:11:56;54.20;;;26.75;;
20619;SDS011;10469;42.720;23.252;2023-02-28T10:14:28;56.22;;;27.10;;
20619;SDS011;10469;42.720;23.252;2023-02-28T10:16:55;49.72;;;27.65;;
20619;SDS011;10469;42.720;23.252;2023-02-28T10:25:32;47.35;;;26.10;;
20619;SDS011;10469;42.720;23.252;2023-02-28T10:28:09;46.92;;;25.70;;
20619;SDS011;10469;42.720;23.252;2023-02-28T10:30:37;48.17;;;26.77;;
20619;SDS011;10469;42.720;23.252;2023-02-28T10:33:05;47.55;;;25.35;;
20619;SDS011;10469;42.720;23.252;2023-02-28T10:35:31;53.40;;;26.42;;
20619;SDS011;10469;42.720;23.252;2023-02-28T10:37:59;51.10;;;25.38;;
20619;SDS011;10469;42.720;23.252;2023-02-28T10:40:28;42.55;;;22.65;;
20619;SDS011;10469;42.720;23.252;2023-02-28T10:43:01;42.78;;;19.25;;
20619;SDS011;10469;42.720;23.252;2023-02-28T10:45:35;37.85;;;14.63;;
20619;SDS011;10469;42.720;23.252;2023-02-28T10:53:04;30.83;;;13.38;;
20619;SDS011;10469;42.720;23.252;2023-02-28T10:55:33;26.67;;;11.60;;
20619;SDS011;10469;42.720;23.252;2023-02-28T10:57:59;25.52;;;12.93;;
20619;SDS011;10469;42.720;23.252;2023-02-28T11:00:25;34.63;;;13.45;;
20619;SDS011;10469;42.720;23.252;2023-02-28T11:02:59;32.53;;;12.25;;
20619;SDS011;10469;42.720;23.252;2023-02-28T11:07:57;21.45;;;12.20;;
20619;SDS011;10469;42.720;23.252;2023-02-28T11:10:36;36.05;;;13.32;;
20619;SDS011;10469;42.720;23.252;2023-02-28T11:13:01;31.08;;;14.38;;
20619;SDS011;10469;42.720;23.252;2023-02-28T11:15:29;38.50;;;14.48;;
20619;SDS011;10469;42.720;23.252;2023-02-28T11:17:58;41.72;;;13.45;;
20619;SDS011;10469;42.720;23.252;2023-02-28T11:20:27;31.40;;;12.00;;
20619;SDS011;10469;42.720;23.252;2023-02-28T11:22:57;29.63;;;12.52;;
20619;SDS011;10469;42.720;23.252;2023-02-28T11:25:27;27.40;;;11.93;;
20619;SDS011;10469;42.720;23.252;2023-02-28T11:27:57;33.33;;;13.63;;
20619;SDS011;10469;42.720;23.252;2023-02-28T11:32:51;40.33;;;13.02;;
20619;SDS011;10469;42.720;23.252;2023-02-28T11:35:18;31.73;;;13.13;;
20619;SDS011;10469;42.720;23.252;2023-02-28T11:38:05;37.95;;;13.50;;
20619;SDS011;10469;42.720;23.252;2023-02-28T11:49:18;23.75;;;11.68;;
20619;SDS011;10469;42.720;23.252;2023-02-28T12:03:11;26.63;;;11.60;;
20619;SDS011;10469;42.720;23.252;2023-02-28T12:10:53;31.50;;;12.50;;
20619;SDS011;10469;42.720;23.252;2023-02-28T12:17:05;22.75;;;11.10;;
20619;SDS011;10469;42.720;23.252;2023-02-28T12:19:39;24.45;;;10.75;;
20619;SDS011;10469;42.720;23.252;2023-02-28T12:27:20;33.35;;;10.90;;
20619;SDS011;10469;42.720;23.252;2023-02-28T12:29:51;23.75;;;11.85;;
20619;SDS011;10469;42.720;23.252;2023-02-28T12:37:34;21.13;;;9.63;;
20619;SDS011;10469;42.720;23.252;2023-02-28T12:40:06;25.83;;;10.90;;
20619;SDS011;10469;42.720;23.252;2023-02-28T12:42:39;30.83;;;11.13;;
20619;SDS011;10469;42.720;23.252;2023-02-28T12:45:33;27.40;;;11.75;;
20619;SDS011;10469;42.720;23.252;2023-02-28T12:48:00;31.60;;;10.60;;
20619;SDS011;10469;42.720;23.252;2023-02-28T12:50:31;30.15;;;11.63;;
20619;SDS011;10469;42.720;23.252;2023-02-28T12:56:06;25.00;;;10.77;;
20619;SDS011;10469;42.720;23.252;2023-02-28T12:58:35;24.83;;;10.23;;
20619;SDS011;10469;42.720;23.252;2023-02-28T13:06:23;23.50;;;11.18;;
20619;SDS011;10469;42.720;23.252;2023-02-28T13:09:03;22.58;;;9.88;;
20619;SDS011;10469;42.720;23.252;2023-02-28T13:11:41;23.65;;;10.15;;
20619;SDS011;10469;42.720;23.252;2023-02-28T13:14:18;34.65;;;11.43;;
20619;SDS011;10469;42.720;23.252;2023-02-28T13:19:17;31.05;;;11.00;;
20619;SDS011;10469;42.720;23.252;2023-02-28T13:21:45;30.80;;;10.57;;
20619;SDS011;10469;42.720;23.252;2023-02-28T13:24:11;28.75;;;11.25;;
20619;SDS011;10469;42.720;23.252;2023-02-28T13:29:28;41.72;;;12.02;;
20619;SDS011;10469;42.720;23.252;2023-02-28T13:34:47;23.30;;;10.88;;
20619;SDS011;10469;42.720;23.252;2023-02-28T13:39:58;30.17;;;10.50;;
20619;SDS011;10469;42.720;23.252;2023-02-28T13:42:50;27.00;;;10.63;;
20619;SDS011;10469;42.720;23.252;2023-02-28T13:47:52;28.80;;;10.63;;
20619;SDS011;10469;42.720;23.252;2023-02-28T14:07:04;22.40;;;9.63;;
20619;SDS011;10469;42.720;23.252;2023-02-28T14:09:38;24.98;;;10.43;;
20619;SDS011;10469;42.720;23.252;2023-02-28T14:15:25;29.05;;;11.82;;
20619;SDS011;10469;42.720;23.252;2023-02-28T14:17:54;24.90;;;10.52;;
20619;SDS011;10469;42.720;23.252;2023-02-28T14:20:22;26.80;;;10.23;;
20619;SDS011;10469;42.720;23.252;2023-02-28T14:22:53;25.90;;;9.85;;
20619;SDS011;10469;42.720;23.252;2023-02-28T14:37:11;28.15;;;11.02;;
20619;SDS011;10469;42.720;23.252;2023-02-28T14:39:41;23.45;;;10.13;;
20619;SDS011;10469;42.720;23.252;2023-02-28T14:42:28;18.98;;;9.27;;
20619;SDS011;10469;42.720;23.252;2023-02-28T14:44:55;21.48;;;9.57;;
20619;SDS011;10469;42.720;23.252;2023-02-28T14:47:21;25.33;;;9.50;;
20619;SDS011;10469;42.720;23.252;2023-02-28T14:49:51;28.27;;;10.35;;
20619;SDS011;10469;42.720;23.252;2023-02-28T14:52:21;32.42;;;10.75;;
20619;SDS011;10469;42.720;23.252;2023-02-28T14:55:03;26.85;;;11.30;;
20619;SDS011;10469;42.720;23.252;2023-02-28T14:57:39;21.13;;;10.10;;
20619;SDS011;10469;42.720;23.252;2023-02-28T15:00:28;25.25;;;10.70;;
20619;SDS011;10469;42.720;23.252;2023-02-28T15:02:53;24.90;;;10.82;;
20619;SDS011;10469;42.720;23.252;2023-02-28T15:05:30;34.97;;;11.13;;
20619;SDS011;10469;42.720;23.252;2023-02-28T15:08:13;37.63;;;11.10;;
20619;SDS011;10469;42.720;23.252;2023-02-28T15:10:44;27.02;;;10.70;;
20619;SDS011;10469;42.720;23.252;2023-02-28T15:13:15;24.08;;;9.93;;
20619;SDS011;10469;42.720;23.252;2023-02-28T15:21:13;22.50;;;10.25;;
20619;SDS011;10469;42.720;23.252;2023-02-28T15:23:43;27.60;;;11.63;;
20619;SDS011;10469;42.720;23.252;2023-02-28T15:26:13;35.53;;;12.25;;
20619;SDS011;10469;42.720;23.252;2023-02-28T15:28:42;26.70;;;10.85;;
20619;SDS011;10469;42.720;23.252;2023-02-28T15:31:18;27.27;;;12.70;;
20619;SDS011;10469;42.720;23.252;2023-02-28T15:33:54;17.80;;;9.82;;
20619;SDS011;10469;42.720;23.252;2023-02-28T15:36:21;21.15;;;11.70;;
20619;SDS011;10469;42.720;23.252;2023-02-28T15:38:52;19.83;;;11.82;;
20619;SDS011;10469;42.720;23.252;2023-02-28T15:41:27;21.45;;;11.05;;
20619;SDS011;10469;42.720;23.252;2023-02-28T15:46:43;19.00;;;12.27;;
20619;SDS011;10469;42.720;23.252;2023-02-28T15:49:23;23.10;;;13.65;;
20619;SDS011;10469;42.720;23.252;2023-02-28T15:51:50;21.05;;;13.50;;
20619;SDS011;10469;42.720;23.252;2023-02-28T15:54:21;24.02;;;11.98;;
20619;SDS011;10469;42.720;23.252;2023-02-28T15:57:07;25.23;;;12.65;;
20619;SDS011;10469;42.720;23.252;2023-02-28T15:59:48;27.08;;;14.07;;
20619;SDS011;10469;42.720;23.252;2023-02-28T16:02:33;19.48;;;12.80;;
20619;SDS011;10469;42.720;23.252;2023-02-28T16:07:33;22.98;;;13.25;;
20619;SDS011;10469;42.720;23.252;2023-02-28T16:10:00;20.48;;;12.05;;
20619;SDS011;10469;42.720;23.252;2023-02-28T16:12:27;23.58;;;12.43;;
20619;SDS011;10469;42.720;23.252;2023-02-28T16:14:55;22.02;;;12.75;;
20619;SDS011;10469;42.720;23.252;2023-02-28T16:17:25;28.40;;;12.00;;
20619;SDS011;10469;42.720;23.252;2023-02-28T16:19:53;23.35;;;12.38;;
20619;SDS011;10469;42.720;23.252;2023-02-28T16:22:19;22.05;;;13.38;;
20619;SDS011;10469;42.720;23.252;2023-02-28T16:24:45;21.75;;;12.70;;
20619;SDS011;10469;42.720;23.252;2023-02-28T16:27:33;23.40;;;12.50;;
20619;SDS011;10469;42.720;23.252;2023-02-28T16:29:57;19.40;;;11.38;;
20619;SDS011;10469;42.720;23.252;2023-02-28T16:32:24;18.02;;;10.68;;
20619;SDS011;10469;42.720;23.252;2023-02-28T16:34:49;22.33;;;11.35;;
20619;SDS011;10469;42.720;23.252;2023-02-28T16:37:16;21.23;;;9.88;;
20619;SDS011;10469;42.720;23.252;2023-02-28T16:39:44;20.65;;;11.25;;
20619;SDS011;10469;42.720;23.252;2023-02-28T16:42:20;18.55;;;9.65;;
20619;SDS011;10469;42.720;23.252;2023-02-28T16:44:48;15.23;;;9.00;;
20619;SDS011;10469;42.720;23.252;2023-02-28T16:47:14;18.15;;;8.95;;
20619;SDS011;10469;42.720;23.252;2023-02-28T16:49:40;16.23;;;8.65;;
20619;SDS011;10469;42.720;23.252;2023-02-28T16:52:07;17.73;;;8.40;;
20619;SDS011;10469;42.720;23.252;2023-02-28T16:54:34;11.02;;;7.88;;
20619;SDS011;10469;42.720;23.252;2023-02-28T16:56:59;15.93;;;8.75;;
20619;SDS011;10469;42.720;23.252;2023-02-28T16:59:28;14.27;;;9.50;;
20619;SDS011;10469;42.720;23.252;2023-02-28T17:01:54;15.85;;;9.07;;